createdAt,value
2023-08-29T00:01:48.610Z,95256.16
2023-08-29T00:04:09.649Z,95249.25
2023-08-29T00:06:30.447Z,95253.25
2023-08-29T00:08:50.832Z,95260.59
2023-08-29T00:11:11.312Z,95265.44
2023-08-29T00:13:31.815Z,95258.41
2023-08-29T00:15:53.212Z,95260.16
2023-08-29T00:18:13.639Z,95259.06
2023-08-29T00:20:34.017Z,95264.06
2023-08-29T00:22:54.526Z,95265.88
2023-08-29T00:25:14.941Z,95269.66
2023-08-29T00:27:35.393Z,95277.00
2023-08-29T00:29:55.789Z,95267.25
2023-08-29T00:32:16.474Z,95269.88
2023-08-29T00:34:36.896Z,95275.25
2023-08-29T00:36:57.641Z,95275.72
2023-08-29T00:39:18.126Z,95270.41
2023-08-29T00:41:38.643Z,95270.44
2023-08-29T00:43:59.482Z,95272.50
2023-08-29T00:46:21.258Z,95269.19
2023-08-29T00:48:43.034Z,95274.31
2023-08-29T00:51:03.963Z,95265.19
2023-08-29T00:53:26.370Z,95273.28
2023-08-29T00:55:47.416Z,95269.50
2023-08-29T00:58:08.096Z,95266.63
2023-08-29T01:00:29.741Z,95260.38
2023-08-29T01:02:50.666Z,95260.16
2023-08-29T01:05:11.242Z,95258.69
2023-08-29T01:07:31.825Z,95261.25
2023-08-29T01:09:52.596Z,95261.25
2023-08-29T01:12:17.332Z,95259.19
2023-08-29T01:15:00.721Z,95264.88
2023-08-29T01:17:30.236Z,95256.94
2023-08-29T01:19:53.341Z,95258.50
2023-08-29T01:22:30.620Z,95251.22
2023-08-29T01:24:59.717Z,95257.72
2023-08-29T01:27:21.033Z,95249.66
2023-08-29T01:29:42.482Z,95241.06
2023-08-29T01:32:04.409Z,95239.53
2023-08-29T01:34:25.172Z,95245.56
2023-08-29T01:36:45.696Z,95241.56
2023-08-29T01:39:06.321Z,95240.03
2023-08-29T01:41:27.080Z,95233.66
2023-08-29T01:43:47.993Z,95247.00
2023-08-29T01:46:08.600Z,95239.28
2023-08-29T01:48:29.614Z,95241.78
2023-08-29T01:50:50.669Z,95244.41
2023-08-29T01:53:11.766Z,95247.75
2023-08-29T01:55:34.156Z,95248.22
2023-08-29T01:57:55.675Z,95228.25
2023-08-29T02:00:17.385Z,95244.72
2023-08-29T02:02:39.698Z,95242.94
2023-08-29T02:05:00.485Z,95234.75
2023-08-29T02:07:20.844Z,95231.91
2023-08-29T02:09:41.249Z,95238.16
2023-08-29T02:12:01.813Z,95236.13
2023-08-29T02:14:22.342Z,95240.66
2023-08-29T02:16:42.688Z,95238.16
2023-08-29T02:19:03.782Z,95241.47
2023-08-29T02:21:24.396Z,95233.19
2023-08-29T02:23:45.378Z,95216.56
2023-08-29T02:26:06.775Z,95219.19
2023-08-29T02:28:27.233Z,95216.00
2023-08-29T02:30:47.827Z,95214.94
2023-08-29T02:33:08.455Z,95217.69
2023-08-29T02:35:29.057Z,95223.75
2023-08-29T02:37:50.347Z,95221.47
2023-08-29T02:40:11.463Z,95214.97
2023-08-29T02:42:32.354Z,95215.94
2023-08-29T02:44:52.905Z,95215.28
2023-08-29T02:47:13.491Z,95212.28
2023-08-29T02:49:34.711Z,95215.38
2023-08-29T02:51:55.290Z,95208.31
2023-08-29T02:54:15.924Z,95208.63
2023-08-29T02:56:36.859Z,95211.09
2023-08-29T02:58:57.731Z,95204.50
2023-08-29T03:01:18.285Z,95201.78
2023-08-29T03:03:39.152Z,95201.22
2023-08-29T03:06:00.641Z,95199.50
2023-08-29T03:08:21.111Z,95190.78
2023-08-29T03:10:42.003Z,95194.22
2023-08-29T03:13:02.474Z,95200.53
2023-08-29T03:15:23.274Z,95196.34
2023-08-29T03:17:45.046Z,95204.25
2023-08-29T03:20:06.672Z,95199.94
2023-08-29T03:22:27.658Z,95197.56
2023-08-29T03:24:48.677Z,95199.78
2023-08-29T03:27:09.464Z,95193.22
2023-08-29T03:29:29.985Z,95190.84
2023-08-29T03:31:50.447Z,95194.25
2023-08-29T03:34:11.034Z,95182.56
2023-08-29T03:36:31.633Z,95190.03
2023-08-29T03:38:52.029Z,95186.84
2023-08-29T03:41:12.617Z,95188.09
2023-08-29T03:43:35.280Z,95194.19
2023-08-29T03:46:00.089Z,95183.47
2023-08-29T03:48:28.944Z,95173.66
2023-08-29T03:50:50.780Z,95183.53
2023-08-29T03:53:11.441Z,95186.63
2023-08-29T03:55:32.061Z,95184.41
2023-08-29T03:57:52.718Z,95178.72
2023-08-29T04:00:14.845Z,95186.47
2023-08-29T04:02:35.416Z,95182.97
2023-08-29T04:05:12.080Z,95188.72
2023-08-29T04:07:32.964Z,95188.16
2023-08-29T04:09:53.498Z,95189.09
2023-08-29T04:12:14.108Z,95191.81
2023-08-29T04:14:36.267Z,95178.59
2023-08-29T04:16:57.019Z,95181.53
2023-08-29T04:19:17.999Z,95175.34
2023-08-29T04:21:38.434Z,95194.66
2023-08-29T04:23:59.292Z,95177.94
2023-08-29T04:26:20.061Z,95183.44
2023-08-29T04:28:40.588Z,95186.47
2023-08-29T04:31:11.085Z,95189.94
2023-08-29T04:33:31.799Z,95192.78
2023-08-29T04:35:53.449Z,95195.59
2023-08-29T04:38:13.925Z,95198.06
2023-08-29T04:40:36.721Z,95199.28
2023-08-29T04:42:57.628Z,95189.19
2023-08-29T04:45:18.017Z,95200.16
2023-08-29T04:47:39.622Z,95199.06
2023-08-29T04:50:01.698Z,95192.69
2023-08-29T04:52:22.411Z,95195.91
2023-08-29T04:54:43.195Z,95200.47
2023-08-29T04:57:05.264Z,95194.34
2023-08-29T04:59:25.739Z,95195.25
2023-08-29T05:01:47.714Z,95201.97
2023-08-29T05:04:10.587Z,95195.78
2023-08-29T05:06:31.280Z,95192.56
2023-08-29T05:08:51.869Z,95198.97
2023-08-29T05:11:12.706Z,95189.59
2023-08-29T05:13:33.458Z,95188.13
2023-08-29T05:15:54.166Z,95187.13
2023-08-29T05:18:14.779Z,95189.56
2023-08-29T05:20:35.134Z,95188.84
2023-08-29T05:22:55.833Z,95184.34
2023-08-29T05:25:16.461Z,95191.25
2023-08-29T05:27:37.207Z,95198.13
2023-08-29T05:29:57.774Z,95189.19
2023-08-29T05:32:18.208Z,95191.63
2023-08-29T05:34:38.724Z,95192.97
2023-08-29T05:36:59.506Z,95195.47
2023-08-29T05:39:21.067Z,95199.41
2023-08-29T05:41:41.652Z,95209.00
2023-08-29T05:44:04.537Z,95201.94
2023-08-29T05:46:25.470Z,95207.47
2023-08-29T05:48:45.900Z,95204.09
2023-08-29T05:51:06.403Z,95196.13
2023-08-29T05:53:27.073Z,95217.78
2023-08-29T05:55:48.421Z,95204.84
2023-08-29T05:58:09.201Z,95214.31
2023-08-29T06:00:31.047Z,95211.88
2023-08-29T06:02:53.660Z,95218.97
2023-08-29T06:05:14.896Z,95206.19
2023-08-29T06:07:35.677Z,95219.22
2023-08-29T06:09:56.872Z,95221.31
2023-08-29T06:12:17.996Z,95225.59
2023-08-29T06:14:38.902Z,95226.22
2023-08-29T06:16:59.743Z,95226.56
2023-08-29T06:19:20.597Z,95220.19
2023-08-29T06:21:41.539Z,95217.94
2023-08-29T06:24:02.423Z,95234.41
2023-08-29T06:26:23.065Z,95224.91
2023-08-29T06:28:44.079Z,95235.63
2023-08-29T06:31:08.469Z,95241.13
2023-08-29T06:33:29.525Z,95246.19
2023-08-29T06:35:50.346Z,95248.59
2023-08-29T06:38:11.009Z,95248.09
2023-08-29T06:40:31.465Z,95256.38
2023-08-29T06:42:51.950Z,95255.78
2023-08-29T06:45:12.359Z,95253.53
2023-08-29T06:47:33.732Z,95262.69
2023-08-29T06:49:56.001Z,95257.63
2023-08-29T06:52:16.584Z,95260.41
2023-08-29T06:54:37.370Z,95255.81
2023-08-29T06:56:58.046Z,95261.78
2023-08-29T06:59:18.520Z,95267.63
2023-08-29T07:01:38.996Z,95266.00
2023-08-29T07:03:59.639Z,95269.69
2023-08-29T07:06:20.398Z,95268.34
2023-08-29T07:08:41.904Z,95262.66
2023-08-29T07:11:02.708Z,95267.44
2023-08-29T07:13:23.607Z,95274.31
2023-08-29T07:15:44.141Z,95268.38
2023-08-29T07:18:07.070Z,95272.69
2023-08-29T07:20:28.276Z,95274.28
2023-08-29T07:22:49.294Z,95273.38
2023-08-29T07:25:12.206Z,95277.84
2023-08-29T07:27:32.792Z,95272.78
2023-08-29T07:29:53.527Z,95280.84
2023-08-29T07:32:14.026Z,95277.56
2023-08-29T07:34:35.248Z,95280.88
2023-08-29T07:36:56.003Z,95294.22
2023-08-29T07:39:20.071Z,95294.13
2023-08-29T07:41:40.894Z,95291.91
2023-08-29T07:44:01.331Z,95291.63
2023-08-29T07:46:21.912Z,95285.16
2023-08-29T07:48:42.729Z,95289.28
2023-08-29T07:51:04.815Z,95293.19
2023-08-29T07:53:25.574Z,95296.81
2023-08-29T07:55:46.372Z,95294.88
2023-08-29T07:58:07.457Z,95300.97
2023-08-29T08:00:29.462Z,95300.31
2023-08-29T08:02:49.917Z,95301.91
2023-08-29T08:05:13.169Z,95295.66
2023-08-29T08:07:33.677Z,95301.97
2023-08-29T08:09:54.309Z,95304.06
2023-08-29T08:12:14.823Z,95290.91
2023-08-29T08:14:35.329Z,95302.25
2023-08-29T08:16:55.975Z,95304.72
2023-08-29T08:19:16.483Z,95299.19
2023-08-29T08:21:37.014Z,95310.06
2023-08-29T08:23:57.542Z,95302.47
2023-08-29T08:26:18.109Z,95285.53
2023-08-29T08:28:38.666Z,95301.41
2023-08-29T08:30:59.282Z,95299.03
2023-08-29T08:33:20.207Z,95298.03
2023-08-29T08:35:55.458Z,95294.19
2023-08-29T08:38:16.544Z,95311.03
2023-08-29T08:40:42.556Z,95300.53
2023-08-29T08:43:05.702Z,95314.28
2023-08-29T08:45:26.216Z,95308.00
2023-08-29T08:47:47.277Z,95319.47
2023-08-29T08:50:12.757Z,95321.94
2023-08-29T08:52:34.651Z,95318.44
2023-08-29T08:54:55.280Z,95320.38
2023-08-29T08:57:15.769Z,95330.94
2023-08-29T08:59:36.620Z,95331.50
2023-08-29T09:01:57.811Z,95325.38
2023-08-29T09:04:18.809Z,95326.84
2023-08-29T09:06:39.606Z,95319.06
2023-08-29T09:09:21.084Z,95327.69
2023-08-29T09:11:45.001Z,95333.16
2023-08-29T09:14:06.206Z,95330.53
2023-08-29T09:16:27.320Z,95326.88
2023-08-29T09:18:51.078Z,95327.03
2023-08-29T09:21:19.016Z,95339.34
2023-08-29T09:23:40.734Z,95324.09
2023-08-29T09:26:01.475Z,95342.47
2023-08-29T09:28:29.895Z,95348.72
2023-08-29T09:30:50.797Z,95348.44
2023-08-29T09:33:11.671Z,95353.81
2023-08-29T09:35:34.244Z,95359.44
2023-08-29T09:37:56.232Z,95355.03
2023-08-29T09:40:37.708Z,95361.13
2023-08-29T09:43:00.688Z,95368.31
2023-08-29T09:45:21.617Z,95362.91
2023-08-29T09:47:42.290Z,95360.16
2023-08-29T09:50:02.772Z,95370.41
2023-08-29T09:52:25.307Z,95372.97
2023-08-29T09:54:49.484Z,95366.38
2023-08-29T09:57:11.514Z,95368.53
2023-08-29T09:59:35.876Z,95374.25
2023-08-29T10:01:56.735Z,95377.50
2023-08-29T10:04:24.803Z,95375.34
2023-08-29T10:06:48.640Z,95366.22
2023-08-29T10:09:11.400Z,95374.00
2023-08-29T10:11:44.415Z,95374.47
2023-08-29T10:14:13.922Z,95369.72
2023-08-29T10:16:35.738Z,95368.91
2023-08-29T10:18:57.414Z,95377.28
2023-08-29T10:21:19.153Z,95371.91
2023-08-29T10:23:40.363Z,95369.81
2023-08-29T10:26:02.251Z,95366.91
2023-08-29T10:28:23.531Z,95376.22
2023-08-29T10:30:48.548Z,95380.22
2023-08-29T10:33:09.222Z,95381.22
2023-08-29T10:35:33.218Z,95376.78
2023-08-29T10:37:54.066Z,95375.56
2023-08-29T10:40:15.348Z,95372.81
2023-08-29T10:42:54.436Z,95384.91
2023-08-29T10:45:15.347Z,95380.03
2023-08-29T10:47:47.378Z,95387.50
2023-08-29T10:50:17.764Z,95383.78
2023-08-29T10:52:41.207Z,95383.75
2023-08-29T10:55:09.661Z,95385.16
2023-08-29T10:57:31.191Z,95379.34
2023-08-29T10:59:53.244Z,95381.09
2023-08-29T11:02:28.371Z,95386.66
2023-08-29T11:04:56.392Z,95375.78
2023-08-29T11:07:27.670Z,95371.03
2023-08-29T11:09:48.555Z,95369.03
2023-08-29T11:12:14.413Z,95369.78
2023-08-29T11:14:56.725Z,95379.59
2023-08-29T11:17:24.235Z,95368.91
2023-08-29T11:19:47.416Z,95353.09
2023-08-29T11:22:09.416Z,95359.66
2023-08-29T11:24:31.095Z,95360.72
2023-08-29T11:26:51.656Z,95366.75
2023-08-29T11:29:12.359Z,95362.94
2023-08-29T11:31:34.034Z,95355.69
2023-08-29T11:33:54.821Z,95352.16
2023-08-29T11:36:16.869Z,95351.91
2023-08-29T11:38:38.722Z,95361.91
2023-08-29T11:41:25.008Z,95353.13
2023-08-29T11:44:24.369Z,95352.91
2023-08-29T11:46:23.092Z,95345.59
2023-08-29T11:48:43.473Z,95347.38
2023-08-29T11:51:09.410Z,95351.13
2023-08-29T11:53:33.732Z,95357.13
2023-08-29T11:55:54.476Z,95358.66
2023-08-29T11:58:15.317Z,95350.63
2023-08-29T12:00:35.911Z,95358.34
2023-08-29T12:02:57.726Z,95357.41
2023-08-29T12:05:21.400Z,95365.47
2023-08-29T12:07:43.181Z,95357.94
2023-08-29T12:10:11.542Z,95359.97
2023-08-29T12:12:35.372Z,95369.03
2023-08-29T12:14:56.293Z,95364.25
2023-08-29T12:17:17.619Z,95368.03
2023-08-29T12:19:38.695Z,95355.94
2023-08-29T12:21:59.485Z,95360.47
2023-08-29T12:24:21.177Z,95355.16
2023-08-29T12:26:42.033Z,95357.94
2023-08-29T12:29:02.915Z,95367.47
2023-08-29T12:31:23.478Z,95375.03
2023-08-29T12:33:44.178Z,95373.31
2023-08-29T12:36:05.788Z,95374.75
2023-08-29T12:38:27.867Z,95380.88
2023-08-29T12:40:48.663Z,95383.63
2023-08-29T12:43:10.742Z,95379.84
2023-08-29T12:45:33.272Z,95382.84
2023-08-29T12:47:59.650Z,95377.59
2023-08-29T12:50:20.513Z,95389.41
2023-08-29T12:52:41.647Z,95379.34
2023-08-29T12:55:02.443Z,95385.09
2023-08-29T12:57:22.918Z,95381.34
2023-08-29T12:59:43.493Z,95366.97
2023-08-29T13:02:04.114Z,95389.38
2023-08-29T13:04:24.900Z,95390.94
2023-08-29T13:06:45.477Z,95379.09
2023-08-29T13:09:06.716Z,95392.19
2023-08-29T13:11:27.189Z,95400.47
2023-08-29T13:13:47.953Z,95401.25
2023-08-29T13:16:08.845Z,95404.53
2023-08-29T13:18:29.380Z,95404.44
2023-08-29T13:20:49.997Z,95396.59
2023-08-29T13:23:11.264Z,95395.38
2023-08-29T13:25:32.109Z,95395.47
2023-08-29T13:27:52.907Z,95402.44
2023-08-29T13:30:14.055Z,95394.69
2023-08-29T13:32:37.870Z,95387.34
2023-08-29T13:34:58.704Z,95388.66
2023-08-29T13:37:19.299Z,95392.44
2023-08-29T13:39:45.108Z,95392.69
2023-08-29T13:42:06.011Z,95382.63
2023-08-29T13:44:26.444Z,95388.78
2023-08-29T13:46:47.109Z,95384.38
2023-08-29T13:49:07.700Z,95382.38
2023-08-29T13:51:28.509Z,95388.38
2023-08-29T13:53:49.615Z,95389.09
2023-08-29T13:56:10.138Z,95386.63
2023-08-29T13:58:30.582Z,95401.31
2023-08-29T14:00:51.632Z,95397.88
2023-08-29T14:03:21.618Z,95394.44
2023-08-29T14:05:49.885Z,95385.66
2023-08-29T14:08:11.781Z,95371.41
2023-08-29T14:10:33.566Z,95367.63
2023-08-29T14:12:54.419Z,95375.00
2023-08-29T14:15:15.173Z,95373.72
2023-08-29T14:17:36.636Z,95367.41
2023-08-29T14:19:58.414Z,95377.06
2023-08-29T14:22:18.973Z,95370.19
2023-08-29T14:24:39.563Z,95378.59
2023-08-29T14:27:00.165Z,95382.13
2023-08-29T14:29:20.834Z,95383.31
2023-08-29T14:31:41.324Z,95384.38
2023-08-29T14:34:01.869Z,95391.44
2023-08-29T14:36:22.384Z,95392.44
2023-08-29T14:38:43.058Z,95390.94
2023-08-29T14:41:07.204Z,95387.91
2023-08-29T14:43:28.061Z,95384.81
2023-08-29T14:45:48.835Z,95377.84
2023-08-29T14:48:10.169Z,95387.66
2023-08-29T14:50:31.078Z,95379.34
2023-08-29T14:52:51.730Z,95372.53
2023-08-29T14:55:12.564Z,95383.09
2023-08-29T14:57:34.915Z,95378.81
2023-08-29T14:59:57.347Z,95390.94
2023-08-29T15:02:18.301Z,95383.13
2023-08-29T15:04:39.073Z,95399.25
2023-08-29T15:07:01.520Z,95397.38
2023-08-29T15:09:21.888Z,95408.56
2023-08-29T15:11:42.718Z,95406.41
2023-08-29T15:14:04.956Z,95403.75
2023-08-29T15:16:25.574Z,95410.19
2023-08-29T15:18:46.667Z,95402.50
2023-08-29T15:21:07.989Z,95407.69
2023-08-29T15:23:31.658Z,95405.81
2023-08-29T15:25:55.079Z,95413.84
2023-08-29T15:28:15.667Z,95406.78
2023-08-29T15:30:37.401Z,95397.72
2023-08-29T15:32:59.151Z,95413.84
2023-08-29T15:35:20.217Z,95413.84
2023-08-29T15:37:40.613Z,95422.13
2023-08-29T15:40:01.318Z,95416.13
2023-08-29T15:42:21.985Z,95418.28
2023-08-29T15:44:42.693Z,95421.91
2023-08-29T15:47:03.632Z,95418.13
2023-08-29T15:49:24.439Z,95418.13
2023-08-29T15:51:45.458Z,95421.28
2023-08-29T15:54:06.356Z,95424.59
2023-08-29T15:56:26.983Z,95419.81
2023-08-29T15:58:47.448Z,95422.28
2023-08-29T16:01:08.744Z,95424.41
2023-08-29T16:03:29.385Z,95430.34
2023-08-29T16:05:50.967Z,95418.25
2023-08-29T16:08:11.730Z,95421.91
2023-08-29T16:10:32.196Z,95427.06
2023-08-29T16:12:52.831Z,95418.75
2023-08-29T16:15:14.968Z,95427.31
2023-08-29T16:17:37.840Z,95427.03
2023-08-29T16:19:58.537Z,95431.81
2023-08-29T16:22:19.222Z,95431.81
2023-08-29T16:24:39.908Z,95439.09
2023-08-29T16:27:00.393Z,95441.78
2023-08-29T16:29:21.155Z,95437.00
2023-08-29T16:31:42.140Z,95443.38
2023-08-29T16:34:03.570Z,95436.28
2023-08-29T16:36:24.467Z,95438.56
2023-08-29T16:38:46.627Z,95439.09
2023-08-29T16:41:07.458Z,95448.94
2023-08-29T16:43:28.351Z,95441.56
2023-08-29T16:45:48.971Z,95440.00
2023-08-29T16:48:09.876Z,95435.88
2023-08-29T16:50:32.189Z,95442.41
2023-08-29T16:52:52.661Z,95442.81
2023-08-29T16:55:13.341Z,95449.59
2023-08-29T16:57:34.341Z,95447.38
2023-08-29T16:59:57.590Z,95425.47
2023-08-29T17:02:18.266Z,95442.56
2023-08-29T17:04:39.097Z,95444.75
2023-08-29T17:06:59.971Z,95445.28
2023-08-29T17:09:20.987Z,95447.94
2023-08-29T17:11:41.793Z,95444.94
2023-08-29T17:14:03.453Z,95447.25
2023-08-29T17:16:25.439Z,95440.09
2023-08-29T17:18:46.393Z,95443.59
2023-08-29T17:21:06.800Z,95450.31
2023-08-29T17:23:27.415Z,95447.06
2023-08-29T17:25:48.220Z,95447.94
2023-08-29T17:28:15.096Z,95441.44
2023-08-29T17:30:35.785Z,95445.75
2023-08-29T17:32:56.493Z,95446.59
2023-08-29T17:35:17.286Z,95448.69
2023-08-29T17:37:42.614Z,95450.81
2023-08-29T17:40:03.379Z,95450.19
2023-08-29T17:42:24.185Z,95458.88
2023-08-29T17:44:46.591Z,95455.53
2023-08-29T17:47:07.266Z,95443.34
2023-08-29T17:49:27.774Z,95458.31
2023-08-29T17:51:49.129Z,95458.63
2023-08-29T17:54:10.000Z,95460.06
2023-08-29T17:56:31.583Z,95462.50
2023-08-29T17:58:52.058Z,95462.28
2023-08-29T18:01:12.744Z,95467.22
2023-08-29T18:03:33.405Z,95458.78
2023-08-29T18:05:55.728Z,95461.38
2023-08-29T18:08:18.587Z,95449.06
2023-08-29T18:10:39.302Z,95456.16
2023-08-29T18:12:59.996Z,95461.28
2023-08-29T18:15:20.610Z,95455.41
2023-08-29T18:17:41.466Z,95460.09
2023-08-29T18:20:02.150Z,95456.63
2023-08-29T18:22:23.032Z,95458.88
2023-08-29T18:24:44.057Z,95463.31
2023-08-29T18:27:05.040Z,95465.84
2023-08-29T18:29:25.663Z,95466.13
2023-08-29T18:31:46.330Z,95471.25
2023-08-29T18:34:06.894Z,95470.75
2023-08-29T18:36:27.491Z,95473.75
2023-08-29T18:38:48.158Z,95476.41
2023-08-29T18:41:09.326Z,95477.47
2023-08-29T18:43:30.147Z,95482.09
2023-08-29T18:45:50.743Z,95492.41
2023-08-29T18:48:11.564Z,95494.22
2023-08-29T18:50:32.935Z,95487.66
2023-08-29T18:52:54.816Z,95490.44
2023-08-29T18:55:15.608Z,95493.16
2023-08-29T18:57:36.928Z,95490.59
2023-08-29T19:00:00.469Z,95495.59
2023-08-29T19:02:20.953Z,95498.94
2023-08-29T19:04:43.927Z,95498.03
2023-08-29T19:07:04.787Z,95494.56
2023-08-29T19:09:25.196Z,95494.88
2023-08-29T19:11:45.975Z,95490.66
2023-08-29T19:14:06.485Z,95490.56
2023-08-29T19:16:26.944Z,95484.03
2023-08-29T19:18:47.421Z,95481.63
2023-08-29T19:21:07.724Z,95484.13
2023-08-29T19:23:29.280Z,95484.97
2023-08-29T19:25:50.021Z,95489.69
2023-08-29T19:28:10.700Z,95489.25
2023-08-29T19:30:31.574Z,95480.66
2023-08-29T19:32:53.807Z,95485.25
2023-08-29T19:35:15.281Z,95478.97
2023-08-29T19:37:36.029Z,95488.25
2023-08-29T19:39:56.856Z,95488.19
2023-08-29T19:42:17.429Z,95494.81
2023-08-29T19:44:38.366Z,95489.56
2023-08-29T19:47:02.702Z,95491.00
2023-08-29T19:49:25.920Z,95490.34
2023-08-29T19:51:46.647Z,95486.22
2023-08-29T19:54:07.456Z,95492.19
2023-08-29T19:56:27.949Z,95490.25
2023-08-29T19:58:48.535Z,95488.81
2023-08-29T20:01:09.498Z,95479.94
2023-08-29T20:03:30.280Z,95491.81
2023-08-29T20:05:50.783Z,95490.63
2023-08-29T20:08:14.993Z,95493.25
2023-08-29T20:10:36.668Z,95498.53
2023-08-29T20:12:57.073Z,95496.47
2023-08-29T20:15:17.997Z,95496.88
2023-08-29T20:17:38.496Z,95499.34
2023-08-29T20:19:59.063Z,95494.56
2023-08-29T20:22:19.739Z,95491.88
2023-08-29T20:24:41.109Z,95497.03
2023-08-29T20:27:03.030Z,95499.03
2023-08-29T20:29:23.491Z,95503.91
2023-08-29T20:31:44.808Z,95505.34
2023-08-29T20:34:05.441Z,95502.88
2023-08-29T20:36:26.414Z,95504.63
2023-08-29T20:38:47.302Z,95500.66
2023-08-29T20:41:08.037Z,95512.28
2023-08-29T20:43:29.684Z,95506.97
2023-08-29T20:45:50.539Z,95511.53
2023-08-29T20:48:11.651Z,95512.59
2023-08-29T20:50:32.452Z,95509.91
2023-08-29T20:52:53.198Z,95503.97
2023-08-29T20:55:15.019Z,95499.56
2023-08-29T20:57:35.779Z,95508.31
2023-08-29T20:59:56.746Z,95505.25
2023-08-29T21:02:17.669Z,95507.28
2023-08-29T21:04:38.226Z,95506.28
2023-08-29T21:06:58.757Z,95510.09
2023-08-29T21:09:20.828Z,95506.03
2023-08-29T21:11:41.992Z,95492.34
2023-08-29T21:14:02.583Z,95500.38
2023-08-29T21:16:23.132Z,95497.03
2023-08-29T21:18:43.830Z,95503.56
2023-08-29T21:21:04.327Z,95501.06
2023-08-29T21:23:25.191Z,95507.09
2023-08-29T21:25:48.249Z,95514.56
2023-08-29T21:28:09.337Z,95507.88
2023-08-29T21:30:30.544Z,95495.00
2023-08-29T21:32:51.112Z,95507.53
2023-08-29T21:35:11.755Z,95508.13
2023-08-29T21:37:32.385Z,95507.44
2023-08-29T21:39:53.319Z,95497.75
2023-08-29T21:42:14.072Z,95500.69
2023-08-29T21:44:34.616Z,95489.31
2023-08-29T21:46:55.180Z,95495.56
2023-08-29T21:49:15.896Z,95497.59
2023-08-29T21:51:36.488Z,95493.00
2023-08-29T21:53:57.330Z,95499.66
2023-08-29T21:56:19.982Z,95496.84
2023-08-29T21:58:40.450Z,95497.25
2023-08-29T22:01:00.896Z,95494.91
2023-08-29T22:03:25.312Z,95493.13
2023-08-29T22:05:47.324Z,95496.97
2023-08-29T22:08:08.156Z,95490.44
2023-08-29T22:10:28.832Z,95482.59
2023-08-29T22:12:50.582Z,95487.53
2023-08-29T22:15:11.884Z,95486.44
2023-08-29T22:17:32.581Z,95488.97
2023-08-29T22:19:53.357Z,95489.69
2023-08-29T22:22:13.950Z,95484.97
2023-08-29T22:24:34.810Z,95489.81
2023-08-29T22:26:56.175Z,95489.34
2023-08-29T22:29:16.622Z,95487.56
2023-08-29T22:31:37.098Z,95491.59
2023-08-29T22:33:57.663Z,95485.78
2023-08-29T22:36:18.191Z,95479.97
2023-08-29T22:38:38.810Z,95486.06
2023-08-29T22:41:15.503Z,95492.44
2023-08-29T22:43:39.241Z,95488.16
2023-08-29T22:46:00.162Z,95489.91
2023-08-29T22:48:20.923Z,95480.78
2023-08-29T22:50:42.193Z,95487.81
2023-08-29T22:53:03.126Z,95487.38
2023-08-29T22:55:25.846Z,95487.31
2023-08-29T22:57:47.204Z,95488.00
2023-08-29T23:00:10.890Z,95483.72
2023-08-29T23:02:31.593Z,95483.88
2023-08-29T23:04:52.033Z,95479.63
2023-08-29T23:07:12.452Z,95474.94
2023-08-29T23:09:33.192Z,95468.38
2023-08-29T23:11:53.997Z,95476.44
2023-08-29T23:14:23.141Z,95473.81
2023-08-29T23:16:43.749Z,95461.16
2023-08-29T23:19:04.362Z,95454.41
2023-08-29T23:21:25.464Z,95461.84
2023-08-29T23:23:46.300Z,95464.00
2023-08-29T23:26:07.178Z,95464.94
2023-08-29T23:28:28.153Z,95469.22
2023-08-29T23:30:55.962Z,95464.31
2023-08-29T23:33:18.002Z,95453.28
2023-08-29T23:35:38.667Z,95458.13
2023-08-29T23:37:59.054Z,95462.16
2023-08-29T23:40:20.348Z,95455.75
2023-08-29T23:42:41.070Z,95453.09
2023-08-29T23:45:01.771Z,95458.44
2023-08-29T23:47:22.875Z,95447.34
2023-08-29T23:49:43.441Z,95460.72
2023-08-29T23:52:04.508Z,95457.19
2023-08-29T23:54:25.389Z,95451.88
2023-08-29T23:56:46.109Z,95454.59
2023-08-29T23:59:06.609Z,95456.38
